»·PEaware :: BTQ913 KLAS-KRNO

BTQ913 :: KLAS-KRNO

FLIGHT INFORMATION

Flight Status: Arrived
Operator: Unknown
More flights by this operator :: More flights under this callsign
Pilot: Anonymous 3903 (3903)
Aircraft: EMBRAER ERJ-145
(E145)
More flights by this aircraft type
Origin: KLAS McCarran Intl
United States
Destination: KRNO Reno/Tahoe Intl
United States
More flights between these airports :: More routes between these airports
Route: +SHEAD1 KENNO KENNO2
File this flight plan on PilotEdge
Remarks:
Altitude:
(Current/Filed)
25,000ft
Speed:
(Current/Filed)
451kts
Departed: 28-Oct-19 08:41 AM
Arrived: 28-Oct-19 09:42 AM
Distance/Time
Traveled:
300nm/1:01
Distance/Time
To Go:
Arrived

Flight Plot

Page will automatically refresh every two minutes.

Flight plan parsing failed; only flown route is shown


Map Options




Map Legend


Flown Route
Filed Route
Departure Airport
Arrival Airport
Navaid (VOR, NDB)
Fix

Horizontal Profiles

Position Reports

Time Latitude Longitude Heading Altitude Ground
Speed
28-Oct-19 08:24 36.097913 -115.161728 0 2118ft 0kts
28-Oct-19 08:25 36.097913 -115.161728 0 2118ft 0kts
28-Oct-19 08:26 36.097913 -115.161728 0 2118ft 0kts
28-Oct-19 08:27 36.097913 -115.161728 0 2118ft 0kts
28-Oct-19 08:28 36.097913 -115.161728 0 2118ft 0kts
28-Oct-19 08:29 36.097913 -115.161728 0 2118ft 0kts
28-Oct-19 08:31 36.097913 -115.161728 0 2118ft 0kts
28-Oct-19 08:32 36.097913 -115.161728 0 2118ft 0kts
28-Oct-19 08:33 36.097913 -115.161728 0 2118ft 0kts
28-Oct-19 08:34 36.097983 -115.161384 103 2118ft 5kts
28-Oct-19 08:35 36.095634 -115.161107 203 2118ft 17kts
28-Oct-19 08:36 36.091079 -115.163683 204 2118ft 17kts
28-Oct-19 08:37 36.086606 -115.166185 203 2118ft 17kts
28-Oct-19 08:38 36.082641 -115.168443 205 2118ft 13kts
28-Oct-19 08:39 36.079049 -115.170445 203 2118ft 15kts
28-Oct-19 08:40 36.075674 -115.170436 120 2118ft 11kts
28-Oct-19 08:41 36.090448 -115.161590 26 2293ft 137kts
28-Oct-19 08:42 36.130650 -115.158528 310 4158ft 210kts
28-Oct-19 08:43 36.116859 -115.233375 247 6585ft 247kts
28-Oct-19 08:44 36.078668 -115.303289 205 8851ft 286kts
28-Oct-19 08:45 36.049572 -115.386833 256 10183ft 287kts
28-Oct-19 08:46 36.024102 -115.484305 257 12051ft 320kts
28-Oct-19 08:47 35.995947 -115.591722 257 14238ft 332kts
28-Oct-19 08:47 35.971963 -115.682983 257 16034ft 338kts
28-Oct-19 08:49 35.937412 -115.813892 257 18294ft 348kts
28-Oct-19 08:50 35.907044 -115.928381 257 20068ft 354kts
28-Oct-19 08:50 35.923345 -116.017732 316 21381ft 339kts
28-Oct-19 08:52 36.008059 -116.107534 317 23079ft 349kts
28-Oct-19 08:53 36.081490 -116.188478 316 24009ft 367kts
28-Oct-19 08:53 36.146763 -116.262179 316 24017ft 394kts
28-Oct-19 08:55 36.239533 -116.368655 316 24225ft 390kts
28-Oct-19 08:55 36.305892 -116.445232 316 24230ft 394kts
28-Oct-19 08:56 36.385188 -116.537326 316 24190ft 388kts
28-Oct-19 08:58 36.475835 -116.642994 316 24326ft 381kts
28-Oct-19 08:58 36.540256 -116.718661 316 24303ft 380kts
28-Oct-19 08:59 36.624774 -116.793831 327 23269ft 365kts
28-Oct-19 09:00 36.709147 -116.857931 327 21562ft 345kts
28-Oct-19 09:01 36.789031 -116.918783 327 20488ft 336kts
28-Oct-19 09:02 36.873511 -116.983347 327 20269ft 368kts
28-Oct-19 09:03 36.961032 -117.050255 327 20274ft 371kts
28-Oct-19 09:04 37.049302 -117.117972 327 20271ft 373kts
28-Oct-19 09:05 37.138142 -117.186343 327 20267ft 374kts
28-Oct-19 09:06 37.226989 -117.254917 327 20268ft 375kts
28-Oct-19 09:07 37.313893 -117.327373 319 20264ft 376kts
28-Oct-19 09:08 37.393860 -117.412707 320 20259ft 377kts
28-Oct-19 09:09 37.474696 -117.495493 322 20263ft 377kts
28-Oct-19 09:10 37.558613 -117.575828 323 20260ft 378kts
28-Oct-19 09:11 37.642103 -117.656083 323 20264ft 378kts
28-Oct-19 09:12 37.725853 -117.737004 323 20269ft 378kts
28-Oct-19 09:13 37.809178 -117.817851 323 20279ft 378kts
28-Oct-19 09:14 37.892658 -117.899116 323 20277ft 378kts
28-Oct-19 09:15 37.975998 -117.980505 323 20280ft 378kts
28-Oct-19 09:16 38.059524 -118.062327 323 20284ft 378kts
28-Oct-19 09:17 38.142566 -118.143921 323 20287ft 378kts
28-Oct-19 09:18 38.225801 -118.225949 323 20289ft 378kts
28-Oct-19 09:19 38.309140 -118.308329 323 20293ft 379kts
28-Oct-19 09:20 38.392025 -118.390503 323 20300ft 378kts
28-Oct-19 09:21 38.475360 -118.473364 323 20306ft 378kts
28-Oct-19 09:22 38.558100 -118.555883 322 20308ft 379kts
28-Oct-19 09:23 38.641265 -118.639075 323 20307ft 379kts
28-Oct-19 09:24 38.724389 -118.722494 322 20307ft 379kts
28-Oct-19 09:25 38.807192 -118.805824 323 20306ft 372kts
28-Oct-19 09:26 38.884699 -118.883996 323 20283ft 341kts
28-Oct-19 09:27 38.957580 -118.957756 323 20282ft 334kts
28-Oct-19 09:28 39.035606 -119.036954 322 18844ft 376kts
28-Oct-19 09:29 39.110667 -119.123852 317 17354ft 345kts
28-Oct-19 09:30 39.176145 -119.205969 317 16454ft 315kts
28-Oct-19 09:31 39.238173 -119.284095 317 15211ft 316kts
28-Oct-19 09:32 39.300932 -119.363580 316 14040ft 295kts
28-Oct-19 09:33 39.358562 -119.433937 326 12924ft 286kts
28-Oct-19 09:34 39.422747 -119.493373 324 11332ft 285kts
28-Oct-19 09:35 39.486290 -119.553369 324 9463ft 281kts
28-Oct-19 09:36 39.549361 -119.612800 324 8994ft 280kts
28-Oct-19 09:37 39.609262 -119.675539 300 8028ft 271kts
28-Oct-19 09:38 39.596283 -119.749350 224 6741ft 208kts
28-Oct-19 09:39 39.546290 -119.768860 181 5168ft 157kts
28-Oct-19 09:40 39.505012 -119.769222 179 4419ft 121kts
28-Oct-19 09:41 39.497851 -119.766343 92 4418ft 16kts
28-Oct-19 09:42 39.501826 -119.764823 91 4418ft 11kts

Navigation Log

Ident Type
Flight plan parsing failed, navigation log unavailable